This is the latest recevied weather packets stored in our database for station/object KF7PIZ. If no packets are shown the sender has not sent any weather packets the latest 1 day(s).
| Time | Temp. | Humidity | Pressure | Rain* | Wind** | Luminosity | Snow |
|---|---|---|---|---|---|---|---|
| 1778028661 | 25° C | 31% | 1012.2 hPa | 0 mm | 0 m/s | 229 W/m² | - |
| 1778028358 | 22.78° C | 31% | 1012.2 hPa | 0 mm | 0 m/s | 149 W/m² | - |
| 1778028054 | 21.67° C | 34% | 1012.5 hPa | 0 mm | 0 m/s | 42 W/m² | - |
| 1778027751 | 22.78° C | 38% | 1012.3 hPa | 0 mm | 0 m/s | 44 W/m² | - |
| 1778027447 | 22.78° C | 35% | 1012.1 hPa | 0 mm | 0 m/s | 54 W/m² | - |
| 1778027143 | 21.67° C | 34% | 1012.1 hPa | 0 mm | 0 m/s | 52 W/m² | - |
| 1778026839 | 22.22° C | 35% | 1012.3 hPa | 0 mm | 0 m/s | 62 W/m² | - |
| 1778026536 | 22.78° C | 30% | 1012.1 hPa | 0 mm | 0 m/s | 43 W/m² | - |
| 1778026233 | 22.78° C | 31% | 1012.3 hPa | 0 mm | 0 m/s | 43 W/m² | - |
| 1778025930 | 22.78° C | 31% | 1012.2 hPa | 0 mm | 0 m/s | 91 W/m² | - |
| 1778025628 | 22.22° C | 32% | 1012.3 hPa | 0 mm | 0 m/s | 69 W/m² | - |
| 1778025326 | 22.78° C | 32% | 1012.3 hPa | 0 mm | 0 m/s | 44 W/m² | - |
| 1778025022 | 23.33° C | 32% | 1012.3 hPa | 0 mm | 0.45 m/s, 219° | 234 W/m² | - |
| 1778024719 | 23.89° C | 33% | 1012.5 hPa | 0 mm | 0 m/s | 368 W/m² | - |
| 1778024416 | 23.89° C | 33% | 1012.3 hPa | 0 mm | 0 m/s | 363 W/m² | - |
| 1778024114 | 23.89° C | 37% | 1012.4 hPa | 0 mm | 0 m/s | 72 W/m² | - |
| 1778023811 | 22.78° C | 40% | 1012.4 hPa | 0 mm | 0 m/s | 256 W/m² | - |
| 1778023509 | 23.33° C | 36% | 1012.4 hPa | 0 mm | 0 m/s | 62 W/m² | - |
| 1778023206 | 23.33° C | 38% | 1012.6 hPa | 0 mm | 0 m/s | 77 W/m² | - |
| 1778022903 | 22.78° C | 40% | 1012.8 hPa | 0 mm | 0 m/s | 49 W/m² | - |
| 1778022601 | 22.22° C | 37% | 1012.4 hPa | 0 mm | 0 m/s | 69 W/m² | - |
| 1778022298 | 22.22° C | 41% | 1012.6 hPa | 0 mm | 0 m/s | 203 W/m² | - |
| 1778021994 | 22.22° C | 41% | 1012.6 hPa | 0 mm | 0 m/s | 104 W/m² | - |
| 1778021692 | 21.67° C | 41% | 1012.8 hPa | 0 mm | 0 m/s | 103 W/m² | - |
| 1778021388 | 21.67° C | 43% | 1012.9 hPa | 0 mm | 0 m/s | 118 W/m² | - |
* Rain latest hour (hover to see other rain measurements)
** Current wind speed in m/s (hover to see current wind gust speed)